sensor_id;sensor_type;location;lat;lon;timestamp;P1;durP1;ratioP1;P2;durP2;ratioP2
16330;SDS011;8275;48.206;16.340;2024-03-29T00:01:35;0.95;;;0.73;;
16330;SDS011;8275;48.206;16.340;2024-03-29T00:04:01;1.30;;;0.30;;
16330;SDS011;8275;48.206;16.340;2024-03-29T00:06:28;1.17;;;0.47;;
16330;SDS011;8275;48.206;16.340;2024-03-29T00:08:54;0.40;;;0.40;;
16330;SDS011;8275;48.206;16.340;2024-03-29T00:11:21;1.95;;;0.60;;
16330;SDS011;8275;48.206;16.340;2024-03-29T00:13:47;0.85;;;0.55;;
16330;SDS011;8275;48.206;16.340;2024-03-29T00:16:15;7.10;;;0.77;;
16330;SDS011;8275;48.206;16.340;2024-03-29T00:18:42;0.73;;;0.60;;
16330;SDS011;8275;48.206;16.340;2024-03-29T00:21:08;0.40;;;0.40;;
16330;SDS011;8275;48.206;16.340;2024-03-29T00:23:35;0.98;;;0.55;;
16330;SDS011;8275;48.206;16.340;2024-03-29T00:26:01;1.27;;;0.40;;
16330;SDS011;8275;48.206;16.340;2024-03-29T00:28:28;0.22;;;0.20;;
16330;SDS011;8275;48.206;16.340;2024-03-29T00:30:55;0.40;;;0.40;;
16330;SDS011;8275;48.206;16.340;2024-03-29T00:33:23;0.77;;;0.70;;
16330;SDS011;8275;48.206;16.340;2024-03-29T00:35:49;0.43;;;0.43;;
16330;SDS011;8275;48.206;16.340;2024-03-29T00:38:16;0.38;;;0.38;;
16330;SDS011;8275;48.206;16.340;2024-03-29T00:40:43;0.40;;;0.40;;
16330;SDS011;8275;48.206;16.340;2024-03-29T00:43:09;0.50;;;0.50;;
16330;SDS011;8275;48.206;16.340;2024-03-29T00:45:36;0.88;;;0.40;;
16330;SDS011;8275;48.206;16.340;2024-03-29T00:48:02;0.30;;;0.20;;
16330;SDS011;8275;48.206;16.340;2024-03-29T00:50:31;0.50;;;0.47;;
16330;SDS011;8275;48.206;16.340;2024-03-29T00:52:58;0.63;;;0.60;;
16330;SDS011;8275;48.206;16.340;2024-03-29T00:55:24;0.35;;;0.35;;
16330;SDS011;8275;48.206;16.340;2024-03-29T00:57:51;0.68;;;0.57;;
16330;SDS011;8275;48.206;16.340;2024-03-29T01:00:17;0.50;;;0.47;;
16330;SDS011;8275;48.206;16.340;2024-03-29T01:02:44;0.40;;;0.30;;
16330;SDS011;8275;48.206;16.340;2024-03-29T01:05:11;0.60;;;0.57;;
16330;SDS011;8275;48.206;16.340;2024-03-29T01:07:41;0.63;;;0.63;;
16330;SDS011;8275;48.206;16.340;2024-03-29T01:10:08;1.00;;;0.60;;
16330;SDS011;8275;48.206;16.340;2024-03-29T01:12:35;2.08;;;0.60;;
16330;SDS011;8275;48.206;16.340;2024-03-29T01:15:02;0.50;;;0.50;;
16330;SDS011;8275;48.206;16.340;2024-03-29T01:17:29;0.63;;;0.50;;
16330;SDS011;8275;48.206;16.340;2024-03-29T01:19:55;0.80;;;0.47;;
16330;SDS011;8275;48.206;16.340;2024-03-29T01:22:22;1.95;;;0.43;;
16330;SDS011;8275;48.206;16.340;2024-03-29T01:24:50;0.57;;;0.57;;
16330;SDS011;8275;48.206;16.340;2024-03-29T01:27:16;0.47;;;0.47;;
16330;SDS011;8275;48.206;16.340;2024-03-29T01:29:43;1.13;;;0.60;;
16330;SDS011;8275;48.206;16.340;2024-03-29T01:32:09;0.88;;;0.60;;
16330;SDS011;8275;48.206;16.340;2024-03-29T01:34:36;1.27;;;0.63;;
16330;SDS011;8275;48.206;16.340;2024-03-29T01:37:02;0.52;;;0.52;;
16330;SDS011;8275;48.206;16.340;2024-03-29T01:39:29;0.63;;;0.60;;
16330;SDS011;8275;48.206;16.340;2024-03-29T01:41:57;0.68;;;0.50;;
16330;SDS011;8275;48.206;16.340;2024-03-29T01:44:24;0.52;;;0.52;;
16330;SDS011;8275;48.206;16.340;2024-03-29T01:46:51;0.50;;;0.50;;
16330;SDS011;8275;48.206;16.340;2024-03-29T01:49:19;0.80;;;0.70;;
16330;SDS011;8275;48.206;16.340;2024-03-29T01:51:46;1.00;;;0.57;;
16330;SDS011;8275;48.206;16.340;2024-03-29T01:54:14;0.60;;;0.60;;
16330;SDS011;8275;48.206;16.340;2024-03-29T01:56:42;1.70;;;0.80;;
16330;SDS011;8275;48.206;16.340;2024-03-29T01:59:12;1.25;;;0.60;;
16330;SDS011;8275;48.206;16.340;2024-03-29T02:01:43;1.23;;;0.70;;
16330;SDS011;8275;48.206;16.340;2024-03-29T02:04:14;0.93;;;0.60;;
16330;SDS011;8275;48.206;16.340;2024-03-29T02:06:42;0.50;;;0.50;;
16330;SDS011;8275;48.206;16.340;2024-03-29T02:09:09;3.13;;;0.90;;
16330;SDS011;8275;48.206;16.340;2024-03-29T02:11:37;1.23;;;1.00;;
16330;SDS011;8275;48.206;16.340;2024-03-29T02:14:05;0.63;;;0.60;;
16330;SDS011;8275;48.206;16.340;2024-03-29T02:16:33;1.45;;;0.60;;
16330;SDS011;8275;48.206;16.340;2024-03-29T02:19:03;0.98;;;0.65;;
16330;SDS011;8275;48.206;16.340;2024-03-29T02:21:30;1.75;;;0.93;;
16330;SDS011;8275;48.206;16.340;2024-03-29T02:24:06;0.77;;;0.70;;
16330;SDS011;8275;48.206;16.340;2024-03-29T02:26:34;0.65;;;0.65;;
16330;SDS011;8275;48.206;16.340;2024-03-29T02:29:06;1.52;;;0.85;;
16330;SDS011;8275;48.206;16.340;2024-03-29T02:31:34;0.40;;;0.40;;
16330;SDS011;8275;48.206;16.340;2024-03-29T02:34:02;0.77;;;0.60;;
16330;SDS011;8275;48.206;16.340;2024-03-29T02:36:29;0.65;;;0.50;;
16330;SDS011;8275;48.206;16.340;2024-03-29T02:38:57;0.50;;;0.50;;
16330;SDS011;8275;48.206;16.340;2024-03-29T02:41:26;0.60;;;0.40;;
16330;SDS011;8275;48.206;16.340;2024-03-29T02:43:55;0.75;;;0.75;;
16330;SDS011;8275;48.206;16.340;2024-03-29T02:46:22;1.35;;;0.90;;
16330;SDS011;8275;48.206;16.340;2024-03-29T02:48:50;1.00;;;0.70;;
16330;SDS011;8275;48.206;16.340;2024-03-29T02:51:17;0.63;;;0.50;;
16330;SDS011;8275;48.206;16.340;2024-03-29T02:53:44;2.38;;;1.02;;
16330;SDS011;8275;48.206;16.340;2024-03-29T02:56:12;0.50;;;0.50;;
16330;SDS011;8275;48.206;16.340;2024-03-29T02:58:41;0.95;;;0.80;;
16330;SDS011;8275;48.206;16.340;2024-03-29T03:01:09;0.70;;;0.70;;
16330;SDS011;8275;48.206;16.340;2024-03-29T03:03:35;1.33;;;0.88;;
16330;SDS011;8275;48.206;16.340;2024-03-29T03:06:03;0.50;;;0.50;;
16330;SDS011;8275;48.206;16.340;2024-03-29T03:08:30;11.60;;;0.82;;
16330;SDS011;8275;48.206;16.340;2024-03-29T03:11:15;1.33;;;0.63;;
16330;SDS011;8275;48.206;16.340;2024-03-29T03:13:44;1.48;;;0.82;;
16330;SDS011;8275;48.206;16.340;2024-03-29T03:16:11;0.85;;;0.77;;
16330;SDS011;8275;48.206;16.340;2024-03-29T03:18:39;2.47;;;0.90;;
16330;SDS011;8275;48.206;16.340;2024-03-29T03:21:06;2.30;;;0.70;;
16330;SDS011;8275;48.206;16.340;2024-03-29T03:23:33;1.00;;;0.90;;
16330;SDS011;8275;48.206;16.340;2024-03-29T03:26:01;0.73;;;0.70;;
16330;SDS011;8275;48.206;16.340;2024-03-29T03:28:29;0.88;;;0.73;;
16330;SDS011;8275;48.206;16.340;2024-03-29T03:30:58;0.52;;;0.52;;
16330;SDS011;8275;48.206;16.340;2024-03-29T03:33:24;1.73;;;1.50;;
16330;SDS011;8275;48.206;16.340;2024-03-29T03:35:52;1.33;;;1.00;;
16330;SDS011;8275;48.206;16.340;2024-03-29T03:38:18;3.65;;;0.90;;
16330;SDS011;8275;48.206;16.340;2024-03-29T03:40:46;1.33;;;0.85;;
16330;SDS011;8275;48.206;16.340;2024-03-29T03:43:12;0.63;;;0.60;;
16330;SDS011;8275;48.206;16.340;2024-03-29T03:45:40;1.35;;;0.95;;
16330;SDS011;8275;48.206;16.340;2024-03-29T03:48:09;0.68;;;0.63;;
16330;SDS011;8275;48.206;16.340;2024-03-29T03:50:37;4.20;;;0.98;;
16330;SDS011;8275;48.206;16.340;2024-03-29T03:53:04;5.80;;;0.95;;
16330;SDS011;8275;48.206;16.340;2024-03-29T03:55:35;2.92;;;0.85;;
16330;SDS011;8275;48.206;16.340;2024-03-29T03:58:02;1.85;;;1.00;;
16330;SDS011;8275;48.206;16.340;2024-03-29T04:00:30;0.98;;;0.70;;
16330;SDS011;8275;48.206;16.340;2024-03-29T04:02:57;1.75;;;0.95;;
16330;SDS011;8275;48.206;16.340;2024-03-29T04:05:25;1.35;;;1.00;;
16330;SDS011;8275;48.206;16.340;2024-03-29T04:07:52;1.17;;;0.98;;
16330;SDS011;8275;48.206;16.340;2024-03-29T04:10:19;0.70;;;0.70;;
16330;SDS011;8275;48.206;16.340;2024-03-29T04:12:46;2.08;;;0.88;;
16330;SDS011;8275;48.206;16.340;2024-03-29T04:15:13;1.65;;;0.90;;
16330;SDS011;8275;48.206;16.340;2024-03-29T04:17:40;2.00;;;1.10;;
16330;SDS011;8275;48.206;16.340;2024-03-29T04:20:08;0.60;;;0.60;;
16330;SDS011;8275;48.206;16.340;2024-03-29T04:22:37;1.13;;;0.80;;
16330;SDS011;8275;48.206;16.340;2024-03-29T04:25:04;0.82;;;0.82;;
16330;SDS011;8275;48.206;16.340;2024-03-29T04:27:31;1.27;;;1.17;;
16330;SDS011;8275;48.206;16.340;2024-03-29T04:29:59;1.38;;;1.10;;
16330;SDS011;8275;48.206;16.340;2024-03-29T04:32:25;1.50;;;1.20;;
16330;SDS011;8275;48.206;16.340;2024-03-29T04:34:53;1.00;;;0.93;;
16330;SDS011;8275;48.206;16.340;2024-03-29T04:37:20;1.48;;;1.20;;
16330;SDS011;8275;48.206;16.340;2024-03-29T04:39:49;1.42;;;1.00;;
16330;SDS011;8275;48.206;16.340;2024-03-29T04:42:17;1.13;;;0.77;;
16330;SDS011;8275;48.206;16.340;2024-03-29T04:44:45;1.92;;;0.82;;
16330;SDS011;8275;48.206;16.340;2024-03-29T04:47:12;0.90;;;0.88;;
16330;SDS011;8275;48.206;16.340;2024-03-29T04:49:40;1.55;;;1.08;;
16330;SDS011;8275;48.206;16.340;2024-03-29T04:52:08;1.52;;;1.40;;
16330;SDS011;8275;48.206;16.340;2024-03-29T04:54:35;3.30;;;1.15;;
16330;SDS011;8275;48.206;16.340;2024-03-29T04:57:04;1.73;;;1.20;;
16330;SDS011;8275;48.206;16.340;2024-03-29T04:59:32;0.75;;;0.60;;
16330;SDS011;8275;48.206;16.340;2024-03-29T05:02:00;2.30;;;1.50;;
16330;SDS011;8275;48.206;16.340;2024-03-29T05:04:28;1.35;;;1.25;;
16330;SDS011;8275;48.206;16.340;2024-03-29T05:06:56;2.97;;;1.52;;
16330;SDS011;8275;48.206;16.340;2024-03-29T05:09:24;1.02;;;1.02;;
16330;SDS011;8275;48.206;16.340;2024-03-29T05:11:52;1.60;;;1.27;;
16330;SDS011;8275;48.206;16.340;2024-03-29T05:14:20;1.45;;;1.33;;
16330;SDS011;8275;48.206;16.340;2024-03-29T05:16:49;1.65;;;1.42;;
16330;SDS011;8275;48.206;16.340;2024-03-29T05:19:18;2.13;;;1.48;;
16330;SDS011;8275;48.206;16.340;2024-03-29T05:21:45;3.03;;;1.35;;
16330;SDS011;8275;48.206;16.340;2024-03-29T05:24:13;1.75;;;1.10;;
16330;SDS011;8275;48.206;16.340;2024-03-29T05:26:40;1.88;;;1.30;;
16330;SDS011;8275;48.206;16.340;2024-03-29T05:29:08;2.40;;;1.88;;
16330;SDS011;8275;48.206;16.340;2024-03-29T05:31:36;1.20;;;1.10;;
16330;SDS011;8275;48.206;16.340;2024-03-29T05:34:04;1.60;;;1.15;;
16330;SDS011;8275;48.206;16.340;2024-03-29T05:36:31;1.88;;;1.65;;
16330;SDS011;8275;48.206;16.340;2024-03-29T05:38:59;3.33;;;1.77;;
16330;SDS011;8275;48.206;16.340;2024-03-29T05:41:26;3.05;;;1.40;;
16330;SDS011;8275;48.206;16.340;2024-03-29T05:43:54;1.63;;;1.45;;
16330;SDS011;8275;48.206;16.340;2024-03-29T05:46:21;2.65;;;2.28;;
16330;SDS011;8275;48.206;16.340;2024-03-29T05:48:50;3.47;;;1.65;;
16330;SDS011;8275;48.206;16.340;2024-03-29T05:51:17;1.52;;;1.42;;
16330;SDS011;8275;48.206;16.340;2024-03-29T05:53:45;2.25;;;1.38;;
16330;SDS011;8275;48.206;16.340;2024-03-29T05:56:12;2.22;;;1.45;;
16330;SDS011;8275;48.206;16.340;2024-03-29T05:58:40;2.72;;;1.42;;
16330;SDS011;8275;48.206;16.340;2024-03-29T06:01:08;1.60;;;1.40;;
16330;SDS011;8275;48.206;16.340;2024-03-29T06:03:35;1.48;;;1.35;;
16330;SDS011;8275;48.206;16.340;2024-03-29T06:06:04;1.92;;;1.45;;
16330;SDS011;8275;48.206;16.340;2024-03-29T06:08:32;2.70;;;2.10;;
16330;SDS011;8275;48.206;16.340;2024-03-29T06:11:00;2.15;;;1.85;;
16330;SDS011;8275;48.206;16.340;2024-03-29T06:13:27;4.22;;;2.50;;
16330;SDS011;8275;48.206;16.340;2024-03-29T06:16:15;2.88;;;1.88;;
16330;SDS011;8275;48.206;16.340;2024-03-29T06:19:15;1.85;;;1.75;;
16330;SDS011;8275;48.206;16.340;2024-03-29T06:21:44;1.50;;;1.30;;
16330;SDS011;8275;48.206;16.340;2024-03-29T06:24:11;1.80;;;1.70;;
16330;SDS011;8275;48.206;16.340;2024-03-29T06:26:40;1.92;;;1.63;;
16330;SDS011;8275;48.206;16.340;2024-03-29T06:29:08;3.53;;;1.10;;
16330;SDS011;8275;48.206;16.340;2024-03-29T06:31:35;1.67;;;0.88;;
16330;SDS011;8275;48.206;16.340;2024-03-29T06:34:03;1.27;;;1.08;;
16330;SDS011;8275;48.206;16.340;2024-03-29T06:36:30;2.88;;;0.82;;
16330;SDS011;8275;48.206;16.340;2024-03-29T06:39:02;1.73;;;1.17;;
16330;SDS011;8275;48.206;16.340;2024-03-29T06:41:30;2.90;;;0.80;;
16330;SDS011;8275;48.206;16.340;2024-03-29T06:43:57;5.30;;;1.35;;
16330;SDS011;8275;48.206;16.340;2024-03-29T06:46:25;0.98;;;0.73;;
16330;SDS011;8275;48.206;16.340;2024-03-29T06:48:52;1.00;;;0.90;;
16330;SDS011;8275;48.206;16.340;2024-03-29T06:51:20;0.80;;;0.80;;
16330;SDS011;8275;48.206;16.340;2024-03-29T06:53:48;1.65;;;1.02;;
16330;SDS011;8275;48.206;16.340;2024-03-29T06:56:16;1.00;;;0.90;;
16330;SDS011;8275;48.206;16.340;2024-03-29T06:58:44;3.38;;;1.15;;
16330;SDS011;8275;48.206;16.340;2024-03-29T07:01:11;4.38;;;1.25;;
16330;SDS011;8275;48.206;16.340;2024-03-29T07:03:39;4.72;;;1.52;;
16330;SDS011;8275;48.206;16.340;2024-03-29T07:06:07;2.00;;;1.13;;
16330;SDS011;8275;48.206;16.340;2024-03-29T07:08:34;4.72;;;1.20;;
16330;SDS011;8275;48.206;16.340;2024-03-29T07:11:02;8.18;;;1.20;;
16330;SDS011;8275;48.206;16.340;2024-03-29T07:13:31;4.38;;;1.48;;
16330;SDS011;8275;48.206;16.340;2024-03-29T07:15:59;10.07;;;1.48;;
16330;SDS011;8275;48.206;16.340;2024-03-29T07:18:26;12.27;;;2.08;;
16330;SDS011;8275;48.206;16.340;2024-03-29T07:20:54;5.28;;;1.00;;
16330;SDS011;8275;48.206;16.340;2024-03-29T07:23:22;3.75;;;1.20;;
16330;SDS011;8275;48.206;16.340;2024-03-29T07:25:59;2.90;;;1.15;;
16330;SDS011;8275;48.206;16.340;2024-03-29T07:28:28;2.53;;;1.00;;
16330;SDS011;8275;48.206;16.340;2024-03-29T07:30:58;1.27;;;0.90;;
16330;SDS011;8275;48.206;16.340;2024-03-29T07:33:33;1.20;;;1.10;;
16330;SDS011;8275;48.206;16.340;2024-03-29T07:36:01;4.53;;;1.30;;
16330;SDS011;8275;48.206;16.340;2024-03-29T07:38:29;2.63;;;1.10;;
16330;SDS011;8275;48.206;16.340;2024-03-29T07:40:56;1.17;;;1.08;;
16330;SDS011;8275;48.206;16.340;2024-03-29T07:43:25;1.48;;;0.73;;
16330;SDS011;8275;48.206;16.340;2024-03-29T07:45:54;2.17;;;1.20;;
16330;SDS011;8275;48.206;16.340;2024-03-29T07:48:21;4.47;;;1.55;;
16330;SDS011;8275;48.206;16.340;2024-03-29T07:50:49;3.70;;;1.20;;
16330;SDS011;8275;48.206;16.340;2024-03-29T07:53:16;3.03;;;0.93;;
16330;SDS011;8275;48.206;16.340;2024-03-29T07:55:44;1.00;;;0.68;;
16330;SDS011;8275;48.206;16.340;2024-03-29T07:58:12;0.98;;;0.82;;
16330;SDS011;8275;48.206;16.340;2024-03-29T08:00:39;1.40;;;1.25;;
16330;SDS011;8275;48.206;16.340;2024-03-29T08:03:09;2.70;;;1.02;;
16330;SDS011;8275;48.206;16.340;2024-03-29T08:05:36;2.38;;;0.93;;
16330;SDS011;8275;48.206;16.340;2024-03-29T08:08:05;2.17;;;1.10;;
16330;SDS011;8275;48.206;16.340;2024-03-29T08:10:33;0.70;;;0.70;;
16330;SDS011;8275;48.206;16.340;2024-03-29T08:13:01;1.25;;;0.98;;
16330;SDS011;8275;48.206;16.340;2024-03-29T08:15:28;0.70;;;0.70;;
16330;SDS011;8275;48.206;16.340;2024-03-29T08:17:56;1.33;;;1.08;;
16330;SDS011;8275;48.206;16.340;2024-03-29T08:20:25;0.70;;;0.60;;
16330;SDS011;8275;48.206;16.340;2024-03-29T08:22:56;3.13;;;1.35;;
16330;SDS011;8275;48.206;16.340;2024-03-29T08:25:26;1.55;;;1.20;;
16330;SDS011;8275;48.206;16.340;2024-03-29T08:27:54;2.13;;;1.00;;
16330;SDS011;8275;48.206;16.340;2024-03-29T08:30:24;2.25;;;0.73;;
16330;SDS011;8275;48.206;16.340;2024-03-29T08:32:52;5.70;;;1.42;;
16330;SDS011;8275;48.206;16.340;2024-03-29T08:35:19;1.70;;;0.88;;
16330;SDS011;8275;48.206;16.340;2024-03-29T08:37:48;1.52;;;1.13;;
16330;SDS011;8275;48.206;16.340;2024-03-29T08:40:17;1.45;;;1.35;;
16330;SDS011;8275;48.206;16.340;2024-03-29T08:42:44;1.73;;;1.05;;
16330;SDS011;8275;48.206;16.340;2024-03-29T08:45:12;4.00;;;0.98;;
16330;SDS011;8275;48.206;16.340;2024-03-29T08:47:40;7.07;;;1.08;;
16330;SDS011;8275;48.206;16.340;2024-03-29T08:50:07;8.25;;;1.27;;
16330;SDS011;8275;48.206;16.340;2024-03-29T08:52:36;2.42;;;1.30;;
16330;SDS011;8275;48.206;16.340;2024-03-29T08:55:05;1.13;;;1.00;;
16330;SDS011;8275;48.206;16.340;2024-03-29T08:57:34;7.13;;;1.30;;
16330;SDS011;8275;48.206;16.340;2024-03-29T09:00:02;3.47;;;1.65;;
16330;SDS011;8275;48.206;16.340;2024-03-29T09:02:31;2.53;;;1.27;;
16330;SDS011;8275;48.206;16.340;2024-03-29T09:04:59;7.97;;;1.33;;
16330;SDS011;8275;48.206;16.340;2024-03-29T09:07:27;2.55;;;1.63;;
16330;SDS011;8275;48.206;16.340;2024-03-29T09:09:55;5.85;;;1.83;;
16330;SDS011;8275;48.206;16.340;2024-03-29T09:12:24;1.20;;;0.80;;
16330;SDS011;8275;48.206;16.340;2024-03-29T09:14:51;1.55;;;1.10;;
16330;SDS011;8275;48.206;16.340;2024-03-29T09:17:26;2.33;;;0.90;;
16330;SDS011;8275;48.206;16.340;2024-03-29T09:19:53;1.50;;;1.00;;
16330;SDS011;8275;48.206;16.340;2024-03-29T09:22:22;2.25;;;1.38;;
16330;SDS011;8275;48.206;16.340;2024-03-29T09:24:49;1.50;;;1.20;;
16330;SDS011;8275;48.206;16.340;2024-03-29T09:27:17;2.33;;;0.98;;
16330;SDS011;8275;48.206;16.340;2024-03-29T09:29:48;1.98;;;1.27;;
16330;SDS011;8275;48.206;16.340;2024-03-29T09:32:16;1.75;;;1.20;;
16330;SDS011;8275;48.206;16.340;2024-03-29T09:34:45;2.47;;;0.90;;
16330;SDS011;8275;48.206;16.340;2024-03-29T09:37:12;2.13;;;0.98;;
16330;SDS011;8275;48.206;16.340;2024-03-29T09:39:40;2.25;;;0.98;;
16330;SDS011;8275;48.206;16.340;2024-03-29T09:42:08;2.20;;;1.30;;
16330;SDS011;8275;48.206;16.340;2024-03-29T09:44:43;1.17;;;1.05;;
16330;SDS011;8275;48.206;16.340;2024-03-29T09:47:16;1.70;;;1.30;;
16330;SDS011;8275;48.206;16.340;2024-03-29T09:49:45;3.88;;;1.42;;
16330;SDS011;8275;48.206;16.340;2024-03-29T09:52:15;1.77;;;1.15;;
16330;SDS011;8275;48.206;16.340;2024-03-29T09:54:46;3.58;;;1.48;;
16330;SDS011;8275;48.206;16.340;2024-03-29T09:57:13;2.42;;;1.20;;
16330;SDS011;8275;48.206;16.340;2024-03-29T09:59:42;2.47;;;1.05;;
16330;SDS011;8275;48.206;16.340;2024-03-29T10:02:11;4.13;;;1.85;;
16330;SDS011;8275;48.206;16.340;2024-03-29T10:04:44;1.40;;;1.30;;
16330;SDS011;8275;48.206;16.340;2024-03-29T10:07:14;4.53;;;1.63;;
16330;SDS011;8275;48.206;16.340;2024-03-29T10:09:42;5.13;;;1.50;;
16330;SDS011;8275;48.206;16.340;2024-03-29T10:12:10;1.92;;;1.42;;
16330;SDS011;8275;48.206;16.340;2024-03-29T10:14:44;2.40;;;1.60;;
16330;SDS011;8275;48.206;16.340;2024-03-29T10:17:16;2.05;;;1.23;;
16330;SDS011;8275;48.206;16.340;2024-03-29T10:19:44;1.60;;;1.10;;
16330;SDS011;8275;48.206;16.340;2024-03-29T10:22:12;2.05;;;0.82;;
16330;SDS011;8275;48.206;16.340;2024-03-29T10:24:40;4.80;;;1.48;;
16330;SDS011;8275;48.206;16.340;2024-03-29T10:27:07;1.10;;;0.82;;
16330;SDS011;8275;48.206;16.340;2024-03-29T10:29:34;2.03;;;1.05;;
16330;SDS011;8275;48.206;16.340;2024-03-29T10:32:02;2.17;;;1.23;;
16330;SDS011;8275;48.206;16.340;2024-03-29T10:34:32;3.55;;;1.23;;
16330;SDS011;8275;48.206;16.340;2024-03-29T10:37:01;1.55;;;1.05;;
16330;SDS011;8275;48.206;16.340;2024-03-29T10:39:30;2.05;;;1.15;;
16330;SDS011;8275;48.206;16.340;2024-03-29T10:41:59;1.83;;;1.23;;
16330;SDS011;8275;48.206;16.340;2024-03-29T10:44:28;1.70;;;1.33;;
16330;SDS011;8275;48.206;16.340;2024-03-29T10:46:56;2.47;;;1.60;;
16330;SDS011;8275;48.206;16.340;2024-03-29T10:49:25;5.15;;;1.85;;
16330;SDS011;8275;48.206;16.340;2024-03-29T10:51:57;4.53;;;1.42;;
16330;SDS011;8275;48.206;16.340;2024-03-29T10:54:28;2.97;;;1.20;;
16330;SDS011;8275;48.206;16.340;2024-03-29T10:56:59;2.35;;;1.08;;
16330;SDS011;8275;48.206;16.340;2024-03-29T10:59:34;1.95;;;1.13;;
16330;SDS011;8275;48.206;16.340;2024-03-29T11:02:16;2.38;;;1.45;;
16330;SDS011;8275;48.206;16.340;2024-03-29T11:04:58;2.08;;;1.13;;
16330;SDS011;8275;48.206;16.340;2024-03-29T11:07:34;3.95;;;1.52;;
16330;SDS011;8275;48.206;16.340;2024-03-29T11:10:09;4.47;;;2.15;;
16330;SDS011;8275;48.206;16.340;2024-03-29T11:12:46;1.48;;;1.38;;
16330;SDS011;8275;48.206;16.340;2024-03-29T11:15:27;1.40;;;0.98;;
16330;SDS011;8275;48.206;16.340;2024-03-29T11:17:56;2.28;;;1.50;;
16330;SDS011;8275;48.206;16.340;2024-03-29T11:20:27;2.22;;;1.35;;
16330;SDS011;8275;48.206;16.340;2024-03-29T11:23:11;1.60;;;1.05;;
16330;SDS011;8275;48.206;16.340;2024-03-29T11:25:41;2.35;;;1.15;;
16330;SDS011;8275;48.206;16.340;2024-03-29T11:28:11;3.20;;;1.40;;
16330;SDS011;8275;48.206;16.340;2024-03-29T11:30:41;2.40;;;1.02;;
16330;SDS011;8275;48.206;16.340;2024-03-29T11:33:27;3.35;;;1.50;;
16330;SDS011;8275;48.206;16.340;2024-03-29T11:35:57;2.35;;;1.13;;
16330;SDS011;8275;48.206;16.340;2024-03-29T11:38:31;2.42;;;2.05;;
16330;SDS011;8275;48.206;16.340;2024-03-29T11:41:01;2.47;;;1.20;;
16330;SDS011;8275;48.206;16.340;2024-03-29T11:43:29;1.08;;;0.98;;
16330;SDS011;8275;48.206;16.340;2024-03-29T11:45:58;1.83;;;1.15;;
16330;SDS011;8275;48.206;16.340;2024-03-29T11:48:28;2.88;;;1.50;;
16330;SDS011;8275;48.206;16.340;2024-03-29T11:50:57;2.40;;;1.42;;
16330;SDS011;8275;48.206;16.340;2024-03-29T11:53:25;1.92;;;1.80;;
16330;SDS011;8275;48.206;16.340;2024-03-29T11:55:56;3.22;;;1.48;;
16330;SDS011;8275;48.206;16.340;2024-03-29T11:58:25;4.30;;;1.23;;
16330;SDS011;8275;48.206;16.340;2024-03-29T12:00:55;1.75;;;1.45;;
16330;SDS011;8275;48.206;16.340;2024-03-29T12:03:24;1.63;;;1.33;;
16330;SDS011;8275;48.206;16.340;2024-03-29T12:05:54;3.40;;;1.25;;
16330;SDS011;8275;48.206;16.340;2024-03-29T12:08:24;3.30;;;1.65;;
16330;SDS011;8275;48.206;16.340;2024-03-29T12:10:52;2.85;;;1.50;;
16330;SDS011;8275;48.206;16.340;2024-03-29T12:13:21;2.33;;;1.13;;
16330;SDS011;8275;48.206;16.340;2024-03-29T12:15:48;1.73;;;1.20;;
16330;SDS011;8275;48.206;16.340;2024-03-29T12:18:18;3.92;;;1.48;;
16330;SDS011;8275;48.206;16.340;2024-03-29T12:20:47;2.05;;;1.50;;
16330;SDS011;8275;48.206;16.340;2024-03-29T12:23:16;3.85;;;1.70;;
16330;SDS011;8275;48.206;16.340;2024-03-29T12:25:45;1.55;;;1.23;;
16330;SDS011;8275;48.206;16.340;2024-03-29T12:28:13;2.47;;;1.60;;
16330;SDS011;8275;48.206;16.340;2024-03-29T12:30:44;1.85;;;1.10;;
16330;SDS011;8275;48.206;16.340;2024-03-29T12:33:14;2.45;;;1.60;;
16330;SDS011;8275;48.206;16.340;2024-03-29T12:35:45;3.50;;;2.33;;
16330;SDS011;8275;48.206;16.340;2024-03-29T12:38:14;2.53;;;1.65;;
16330;SDS011;8275;48.206;16.340;2024-03-29T12:40:44;3.22;;;2.05;;
16330;SDS011;8275;48.206;16.340;2024-03-29T12:43:15;6.40;;;2.03;;
16330;SDS011;8275;48.206;16.340;2024-03-29T12:45:48;2.60;;;2.00;;
16330;SDS011;8275;48.206;16.340;2024-03-29T12:48:17;1.35;;;1.25;;
16330;SDS011;8275;48.206;16.340;2024-03-29T12:50:46;3.50;;;1.60;;
16330;SDS011;8275;48.206;16.340;2024-03-29T12:53:14;4.53;;;1.10;;
16330;SDS011;8275;48.206;16.340;2024-03-29T12:55:43;2.40;;;1.30;;
16330;SDS011;8275;48.206;16.340;2024-03-29T12:58:15;2.67;;;1.15;;
16330;SDS011;8275;48.206;16.340;2024-03-29T13:00:48;3.42;;;1.75;;
16330;SDS011;8275;48.206;16.340;2024-03-29T13:03:16;1.30;;;1.20;;
16330;SDS011;8275;48.206;16.340;2024-03-29T13:05:43;3.80;;;1.42;;
16330;SDS011;8275;48.206;16.340;2024-03-29T13:08:11;2.10;;;1.50;;
16330;SDS011;8275;48.206;16.340;2024-03-29T13:10:41;1.55;;;1.23;;
16330;SDS011;8275;48.206;16.340;2024-03-29T13:13:09;2.13;;;1.42;;
16330;SDS011;8275;48.206;16.340;2024-03-29T13:15:37;1.42;;;1.15;;
16330;SDS011;8275;48.206;16.340;2024-03-29T13:18:08;2.72;;;1.17;;
16330;SDS011;8275;48.206;16.340;2024-03-29T13:20:39;1.90;;;1.58;;
16330;SDS011;8275;48.206;16.340;2024-03-29T13:23:08;2.47;;;1.45;;
16330;SDS011;8275;48.206;16.340;2024-03-29T13:25:37;2.08;;;1.52;;
16330;SDS011;8275;48.206;16.340;2024-03-29T13:28:04;1.63;;;1.20;;
16330;SDS011;8275;48.206;16.340;2024-03-29T13:30:32;5.70;;;1.60;;
16330;SDS011;8275;48.206;16.340;2024-03-29T13:33:02;2.67;;;1.20;;
16330;SDS011;8275;48.206;16.340;2024-03-29T13:35:31;2.97;;;1.40;;
16330;SDS011;8275;48.206;16.340;2024-03-29T13:38:00;0.77;;;0.77;;
16330;SDS011;8275;48.206;16.340;2024-03-29T13:40:27;1.90;;;1.58;;
16330;SDS011;8275;48.206;16.340;2024-03-29T13:42:54;2.88;;;1.67;;
16330;SDS011;8275;48.206;16.340;2024-03-29T13:45:22;1.15;;;0.90;;
16330;SDS011;8275;48.206;16.340;2024-03-29T13:47:51;1.42;;;1.08;;
16330;SDS011;8275;48.206;16.340;2024-03-29T13:50:18;3.25;;;1.30;;
16330;SDS011;8275;48.206;16.340;2024-03-29T13:52:47;1.60;;;1.20;;
16330;SDS011;8275;48.206;16.340;2024-03-29T13:55:15;5.72;;;1.52;;
16330;SDS011;8275;48.206;16.340;2024-03-29T13:57:42;7.07;;;2.40;;
16330;SDS011;8275;48.206;16.340;2024-03-29T14:00:10;2.28;;;1.73;;
16330;SDS011;8275;48.206;16.340;2024-03-29T14:02:42;2.42;;;1.50;;
16330;SDS011;8275;48.206;16.340;2024-03-29T14:05:09;2.55;;;1.70;;
16330;SDS011;8275;48.206;16.340;2024-03-29T14:07:37;4.40;;;2.05;;
16330;SDS011;8275;48.206;16.340;2024-03-29T14:10:07;2.10;;;1.50;;
16330;SDS011;8275;48.206;16.340;2024-03-29T14:12:35;5.22;;;1.33;;
16330;SDS011;8275;48.206;16.340;2024-03-29T14:15:03;1.35;;;1.25;;
16330;SDS011;8275;48.206;16.340;2024-03-29T14:17:32;1.80;;;1.58;;
16330;SDS011;8275;48.206;16.340;2024-03-29T14:20:00;4.78;;;1.33;;
16330;SDS011;8275;48.206;16.340;2024-03-29T14:22:28;1.55;;;1.30;;
16330;SDS011;8275;48.206;16.340;2024-03-29T14:24:58;0.85;;;0.82;;
16330;SDS011;8275;48.206;16.340;2024-03-29T14:27:29;8.77;;;1.77;;
16330;SDS011;8275;48.206;16.340;2024-03-29T14:29:57;1.20;;;1.10;;
16330;SDS011;8275;48.206;16.340;2024-03-29T14:32:25;2.35;;;1.58;;
16330;SDS011;8275;48.206;16.340;2024-03-29T14:34:52;2.25;;;1.08;;
16330;SDS011;8275;48.206;16.340;2024-03-29T14:37:19;1.10;;;1.00;;
16330;SDS011;8275;48.206;16.340;2024-03-29T14:39:48;1.35;;;1.13;;
16330;SDS011;8275;48.206;16.340;2024-03-29T14:42:15;1.75;;;0.95;;
16330;SDS011;8275;48.206;16.340;2024-03-29T14:44:49;1.63;;;1.02;;
16330;SDS011;8275;48.206;16.340;2024-03-29T14:47:16;1.40;;;1.15;;
16330;SDS011;8275;48.206;16.340;2024-03-29T14:49:44;6.00;;;1.30;;
16330;SDS011;8275;48.206;16.340;2024-03-29T14:52:11;2.03;;;1.00;;
16330;SDS011;8275;48.206;16.340;2024-03-29T14:54:39;2.45;;;0.75;;
16330;SDS011;8275;48.206;16.340;2024-03-29T14:57:06;0.90;;;0.77;;